Time;durP1;ratioP1;P1;durP2;ratioP2;P2;SDS_P1;SDS_P2;PMS_P1;PMS_P2;Temp;Humidity;BMP_temperature;BMP_pressure;BME280_temperature;BME280_humidity;BME280_pressure;Samples;Min_cycle;Max_cycle;Signal;HPM_P1;HPM_P2
2023/08/19 00:01:23;;;;;;;214.23;68.60;;;;;;;;;;5071155;28;20467;-54
2023/08/19 00:03:49;;;;;;;217.43;71.27;;;;;;;;;;5071122;28;20412;-55
2023/08/19 00:06:36;;;;;;;216.90;70.93;;;;;;;;;;5071157;28;20458;-55
2023/08/19 00:09:04;;;;;;;218.57;70.97;;;;;;;;;;5071268;28;20421;-55
2023/08/19 00:11:30;;;;;;;218.20;72.53;;;;;;;;;;5071105;28;20438;-54
2023/08/19 00:13:56;;;;;;;214.67;66.73;;;;;;;;;;5071260;28;20405;-53
2023/08/19 00:16:22;;;;;;;216.47;70.17;;;;;;;;;;5071112;28;20416;-55
2023/08/19 00:18:49;;;;;;;216.20;69.07;;;;;;;;;;5071227;28;20411;-55
2023/08/19 00:21:15;;;;;;;218.33;70.80;;;;;;;;;;5070890;28;20408;-54
2023/08/19 00:23:41;;;;;;;218.47;70.97;;;;;;;;;;5071001;28;20487;-54
2023/08/19 00:26:07;;;;;;;216.00;68.67;;;;;;;;;;5071012;28;20459;-54
2023/08/19 00:28:33;;;;;;;218.40;70.87;;;;;;;;;;5071154;28;20416;-54
2023/08/19 00:30:59;;;;;;;218.13;70.60;;;;;;;;;;5070759;28;20404;-55
2023/08/19 00:33:25;;;;;;;216.03;70.57;;;;;;;;;;5071012;28;20890;-55
2023/08/19 00:35:54;;;;;;;219.37;74.33;;;;;;;;;;5071194;28;21096;-55
2023/08/19 00:38:20;;;;;;;218.47;72.80;;;;;;;;;;5071350;28;20414;-55
2023/08/19 00:40:46;;;;;;;216.87;68.73;;;;;;;;;;5070777;28;20407;-54
2023/08/19 00:43:12;;;;;;;218.93;72.23;;;;;;;;;;5070974;28;20524;-55
2023/08/19 00:45:39;;;;;;;215.60;67.37;;;;;;;;;;5070533;28;20547;-54
2023/08/19 00:48:06;;;;;;;216.57;69.83;;;;;;;;;;5071268;28;20474;-54
2023/08/19 00:50:32;;;;;;;219.87;71.50;;;;;;;;;;5070635;28;20452;-54
2023/08/19 00:52:58;;;;;;;217.80;70.33;;;;;;;;;;5071632;28;20424;-55
2023/08/19 00:55:24;;;;;;;217.33;67.60;;;;;;;;;;5074396;28;20420;-54
2023/08/19 00:57:50;;;;;;;216.77;68.60;;;;;;;;;;5074473;28;20416;-54
2023/08/19 01:00:16;;;;;;;216.00;68.93;;;;;;;;;;5073950;28;20416;-55
2023/08/19 01:02:42;;;;;;;217.13;71.57;;;;;;;;;;5073555;28;20874;-53
2023/08/19 01:05:08;;;;;;;215.63;69.57;;;;;;;;;;5073777;28;20460;-54
2023/08/19 01:07:53;;;;;;;217.17;71.27;;;;;;;;;;5074064;28;20486;-52
2023/08/19 01:10:38;;;;;;;216.77;69.07;;;;;;;;;;5073877;28;20416;-53
2023/08/19 01:13:15;;;;;;;216.20;67.90;;;;;;;;;;5074181;28;20423;-54
2023/08/19 01:15:54;;;;;;;218.33;72.40;;;;;;;;;;5065924;28;20432;-53
2023/08/19 01:18:20;;;;;;;218.37;70.77;;;;;;;;;;5074092;28;20906;-53
2023/08/19 01:20:47;;;;;;;217.27;69.27;;;;;;;;;;5073826;28;20896;-53
2023/08/19 01:23:30;;;;;;;217.50;70.57;;;;;;;;;;5073954;28;20441;-53
2023/08/19 01:25:56;;;;;;;216.63;68.27;;;;;;;;;;5072730;28;20820;-55
2023/08/19 01:28:22;;;;;;;214.83;68.43;;;;;;;;;;5074011;28;20444;-54
2023/08/19 01:30:48;;;;;;;218.83;71.27;;;;;;;;;;5073609;28;20440;-52
2023/08/19 01:33:14;;;;;;;219.03;73.53;;;;;;;;;;5073695;28;20440;-54
2023/08/19 01:35:44;;;;;;;217.17;70.93;;;;;;;;;;5073566;28;20408;-53
2023/08/19 01:38:15;;;;;;;219.37;75.13;;;;;;;;;;5073760;28;20420;-53
2023/08/19 01:40:42;;;;;;;216.10;68.10;;;;;;;;;;5065646;28;20400;-54
2023/08/19 01:43:10;;;;;;;216.83;71.33;;;;;;;;;;5074216;28;20467;-56
2023/08/19 01:45:36;;;;;;;215.87;70.13;;;;;;;;;;5073415;28;20806;-56
2023/08/19 01:48:02;;;;;;;215.57;68.37;;;;;;;;;;5070215;28;20460;-56
2023/08/19 01:50:28;;;;;;;215.37;67.20;;;;;;;;;;5072912;28;20997;-56
2023/08/19 01:52:54;;;;;;;219.07;73.40;;;;;;;;;;5073448;28;20424;-56
2023/08/19 01:55:20;;;;;;;211.30;68.87;;;;;;;;;;5073285;28;20924;-55
2023/08/19 01:57:46;;;;;;;218.17;68.60;;;;;;;;;;5073384;28;20901;-54
2023/08/19 02:00:12;;;;;;;229.50;75.13;;;;;;;;;;5073186;28;20401;-55
2023/08/19 02:02:38;;;;;;;202.13;65.77;;;;;;;;;;5073289;28;20431;-55
2023/08/19 02:05:05;;;;;;;205.60;72.83;;;;;;;;;;5072190;28;20456;-56
2023/08/19 02:07:31;;;;;;;203.07;69.33;;;;;;;;;;5073350;28;20407;-56
2023/08/19 02:09:57;;;;;;;208.37;73.87;;;;;;;;;;5073071;28;20397;-56
2023/08/19 02:12:23;;;;;;;208.00;75.30;;;;;;;;;;5073212;28;20422;-56
2023/08/19 02:14:49;;;;;;;203.77;69.67;;;;;;;;;;5073106;28;20946;-57
2023/08/19 02:17:15;;;;;;;202.73;67.70;;;;;;;;;;5073056;28;20744;-56
2023/08/19 02:19:41;;;;;;;208.20;75.37;;;;;;;;;;5072844;28;20400;-56
2023/08/19 02:22:07;;;;;;;204.87;70.93;;;;;;;;;;5072961;28;20466;-55
2023/08/19 02:24:33;;;;;;;203.37;69.03;;;;;;;;;;5073104;28;20426;-56
2023/08/19 02:26:59;;;;;;;205.47;71.53;;;;;;;;;;5072856;28;20491;-55
2023/08/19 02:29:25;;;;;;;202.90;67.60;;;;;;;;;;5072879;28;20402;-54
2023/08/19 02:31:51;;;;;;;203.27;69.33;;;;;;;;;;5072473;28;20470;-56
2023/08/19 02:34:17;;;;;;;202.70;68.80;;;;;;;;;;5072851;28;20400;-55
2023/08/19 02:36:43;;;;;;;204.07;69.17;;;;;;;;;;5072632;28;20401;-56
2023/08/19 02:39:09;;;;;;;203.20;71.20;;;;;;;;;;5072729;28;21000;-56
2023/08/19 02:41:35;;;;;;;205.50;72.57;;;;;;;;;;5072322;28;20424;-55
2023/08/19 02:44:01;;;;;;;205.07;71.83;;;;;;;;;;5072603;28;20894;-56
2023/08/19 02:46:27;;;;;;;203.83;70.80;;;;;;;;;;5072370;28;20948;-55
2023/08/19 02:48:53;;;;;;;301.13;123.00;;;;;;;;;;5072495;28;20883;-57
2023/08/19 02:51:19;;;;;;;204.97;73.17;;;;;;;;;;5072021;28;20424;-56
2023/08/19 02:53:44;;;;;;;204.40;71.00;;;;;;;;;;5072442;28;20499;-57
2023/08/19 02:56:10;;;;;;;204.80;71.03;;;;;;;;;;5072372;28;20489;-56
2023/08/19 02:58:36;;;;;;;200.53;65.77;;;;;;;;;;5072375;28;20397;-56
2023/08/19 03:01:03;;;;;;;205.27;70.90;;;;;;;;;;5071906;28;20434;-56
2023/08/19 03:03:29;;;;;;;202.30;69.07;;;;;;;;;;5072186;28;20401;-56
2023/08/19 03:06:03;;;;;;;204.37;70.67;;;;;;;;;;5072085;28;20517;-55
2023/08/19 03:08:29;;;;;;;203.40;69.80;;;;;;;;;;5072229;28;20457;-55
2023/08/19 03:10:55;;;;;;;201.53;68.43;;;;;;;;;;5069242;28;20429;-56
2023/08/19 03:13:20;;;;;;;205.07;72.83;;;;;;;;;;5078600;28;20441;-56
2023/08/19 03:15:46;;;;;;;204.43;70.37;;;;;;;;;;5071740;28;20449;-55
2023/08/19 03:18:14;;;;;;;202.73;68.60;;;;;;;;;;5071875;28;20475;-56
2023/08/19 03:20:41;;;;;;;205.87;72.03;;;;;;;;;;5063352;28;20751;-56
2023/08/19 03:23:07;;;;;;;205.43;73.10;;;;;;;;;;5071754;28;20429;-54
2023/08/19 03:25:33;;;;;;;201.83;69.00;;;;;;;;;;5071647;28;21003;-56
2023/08/19 03:27:59;;;;;;;200.37;65.53;;;;;;;;;;5075690;28;20435;-56
2023/08/19 03:30:25;;;;;;;202.60;67.63;;;;;;;;;;5073663;28;20926;-56
2023/08/19 03:32:51;;;;;;;202.73;68.67;;;;;;;;;;5071594;28;20505;-55
2023/08/19 03:35:17;;;;;;;201.77;67.53;;;;;;;;;;5071472;28;20975;-55
2023/08/19 03:37:43;;;;;;;202.87;67.53;;;;;;;;;;5071677;28;20946;-55
2023/08/19 03:40:09;;;;;;;202.60;68.80;;;;;;;;;;5071400;28;20744;-56
2023/08/19 03:42:35;;;;;;;204.10;71.33;;;;;;;;;;5071299;28;20669;-56
2023/08/19 03:45:01;;;;;;;204.80;70.87;;;;;;;;;;5071483;28;20416;-56
2023/08/19 03:47:27;;;;;;;202.67;67.03;;;;;;;;;;5071510;28;20907;-56
2023/08/19 03:49:53;;;;;;;208.83;72.87;;;;;;;;;;5071109;28;20409;-56
2023/08/19 03:52:21;;;;;;;199.27;65.17;;;;;;;;;;5071440;28;20432;-55
2023/08/19 03:54:47;;;;;;;203.07;70.30;;;;;;;;;;5071838;28;20910;-55
2023/08/19 03:57:13;;;;;;;202.03;69.97;;;;;;;;;;5071257;28;20408;-56
2023/08/19 03:59:39;;;;;;;203.67;68.53;;;;;;;;;;5071426;28;20777;-56
2023/08/19 04:02:05;;;;;;;203.53;69.33;;;;;;;;;;5071285;28;20840;-55
2023/08/19 04:04:31;;;;;;;201.87;69.37;;;;;;;;;;5071163;28;20443;-57
2023/08/19 04:06:57;;;;;;;204.27;71.43;;;;;;;;;;5071275;28;20459;-56
2023/08/19 04:09:23;;;;;;;203.57;69.23;;;;;;;;;;5071287;28;20500;-56
2023/08/19 04:11:51;;;;;;;204.20;69.30;;;;;;;;;;5070885;28;20439;-57
2023/08/19 04:14:17;;;;;;;202.93;68.43;;;;;;;;;;5071354;28;20422;-56
2023/08/19 04:16:43;;;;;;;206.77;73.47;;;;;;;;;;5071457;28;20495;-56
2023/08/19 04:19:09;;;;;;;202.40;67.13;;;;;;;;;;5071359;28;20943;-55
2023/08/19 04:21:35;;;;;;;202.33;68.83;;;;;;;;;;5070947;28;20898;-56
2023/08/19 04:24:01;;;;;;;203.67;72.33;;;;;;;;;;5071188;28;20816;-57
2023/08/19 04:26:27;;;;;;;203.40;69.20;;;;;;;;;;5070955;28;20807;-56
2023/08/19 04:28:54;;;;;;;202.57;67.67;;;;;;;;;;5073228;28;20406;-56
2023/08/19 04:31:20;;;;;;;203.00;70.40;;;;;;;;;;5074543;28;20418;-55
2023/08/19 04:33:46;;;;;;;204.20;71.07;;;;;;;;;;5074801;28;20459;-56
2023/08/19 04:36:12;;;;;;;202.97;70.07;;;;;;;;;;5074797;28;20522;-56
2023/08/19 04:38:38;;;;;;;203.30;71.23;;;;;;;;;;5074818;28;20412;-56
2023/08/19 04:41:04;;;;;;;206.33;73.10;;;;;;;;;;5074330;28;20925;-56
2023/08/19 04:43:30;;;;;;;202.50;69.00;;;;;;;;;;5074621;28;20828;-57
2023/08/19 04:45:56;;;;;;;200.87;66.77;;;;;;;;;;5074806;28;20570;-56
2023/08/19 04:48:22;;;;;;;206.43;74.33;;;;;;;;;;5074535;28;20430;-56
2023/08/19 04:50:49;;;;;;;200.37;65.27;;;;;;;;;;5074236;28;20420;-55
2023/08/19 04:53:15;;;;;;;202.33;71.57;;;;;;;;;;5074421;28;20452;-56
2023/08/19 04:55:41;;;;;;;201.80;67.37;;;;;;;;;;5074365;28;20460;-56
2023/08/19 04:58:07;;;;;;;203.93;71.87;;;;;;;;;;5074431;28;20420;-56
2023/08/19 05:00:33;;;;;;;203.70;70.17;;;;;;;;;;5074191;28;20541;-56
2023/08/19 05:02:59;;;;;;;204.67;72.63;;;;;;;;;;5074110;28;20893;-54
2023/08/19 05:05:25;;;;;;;201.87;68.73;;;;;;;;;;5074687;28;20869;-56
2023/08/19 05:07:51;;;;;;;203.37;69.00;;;;;;;;;;5070494;28;20777;-56
2023/08/19 05:10:17;;;;;;;202.63;69.30;;;;;;;;;;5073558;28;20407;-56
2023/08/19 05:12:43;;;;;;;206.80;75.30;;;;;;;;;;5073783;28;20749;-56
2023/08/19 05:15:12;;;;;;;203.47;69.37;;;;;;;;;;5073758;28;20400;-56
2023/08/19 05:17:38;;;;;;;209.03;76.83;;;;;;;;;;5073057;28;20407;-55
2023/08/19 05:20:04;;;;;;;207.50;73.90;;;;;;;;;;5073314;28;20407;-56
2023/08/19 05:22:30;;;;;;;203.47;70.90;;;;;;;;;;5074408;28;20410;-56
2023/08/19 05:24:56;;;;;;;206.70;73.13;;;;;;;;;;5072948;28;20781;-56
2023/08/19 05:27:23;;;;;;;204.13;71.53;;;;;;;;;;5074168;28;20400;-56
2023/08/19 05:29:50;;;;;;;207.13;72.43;;;;;;;;;;5073891;28;20403;-56
2023/08/19 05:32:16;;;;;;;201.97;68.03;;;;;;;;;;5073629;28;20416;-55
2023/08/19 05:34:42;;;;;;;203.10;69.30;;;;;;;;;;5073913;28;20461;-55
2023/08/19 05:37:08;;;;;;;202.17;69.00;;;;;;;;;;5074012;28;20404;-56
2023/08/19 05:39:34;;;;;;;201.83;68.07;;;;;;;;;;5073756;28;20431;-56
2023/08/19 05:41:59;;;;;;;202.47;68.23;;;;;;;;;;5073678;28;20477;-56
2023/08/19 05:44:25;;;;;;;204.97;73.20;;;;;;;;;;5073830;28;20411;-55
2023/08/19 05:46:51;;;;;;;202.23;68.53;;;;;;;;;;5073634;28;20538;-56
2023/08/19 05:49:17;;;;;;;203.87;71.33;;;;;;;;;;5073722;28;20400;-55
2023/08/19 05:51:43;;;;;;;201.97;68.10;;;;;;;;;;5073235;28;20435;-55
2023/08/19 05:54:09;;;;;;;199.57;68.97;;;;;;;;;;5073564;28;20403;-56
2023/08/19 05:56:35;;;;;;;203.70;73.27;;;;;;;;;;5073679;28;20408;-56
2023/08/19 05:59:01;;;;;;;203.60;69.37;;;;;;;;;;5073632;28;20537;-56
2023/08/19 06:01:27;;;;;;;203.20;70.03;;;;;;;;;;5073106;28;20497;-56
2023/08/19 06:03:53;;;;;;;206.87;77.10;;;;;;;;;;5073409;28;20894;-56
2023/08/19 06:06:19;;;;;;;201.90;69.37;;;;;;;;;;5073270;28;20459;-56
2023/08/19 06:08:45;;;;;;;199.17;67.50;;;;;;;;;;5073352;28;20407;-55
2023/08/19 06:11:11;;;;;;;202.60;73.23;;;;;;;;;;5072997;28;20401;-55
2023/08/19 06:13:37;;;;;;;204.97;73.70;;;;;;;;;;5073149;28;20875;-55
2023/08/19 06:16:04;;;;;;;204.67;72.37;;;;;;;;;;5073493;28;20415;-56
2023/08/19 06:18:30;;;;;;;204.73;73.23;;;;;;;;;;5073098;28;20409;-56
2023/08/19 06:20:56;;;;;;;204.07;70.93;;;;;;;;;;5072533;28;20400;-56
2023/08/19 06:23:23;;;;;;;204.57;73.87;;;;;;;;;;5073302;28;20507;-56
2023/08/19 06:25:49;;;;;;;218.67;86.53;;;;;;;;;;5071542;28;20486;-54
2023/08/19 06:28:16;;;;;;;204.47;71.50;;;;;;;;;;5072144;28;20416;-56
2023/08/19 06:30:42;;;;;;;204.07;71.13;;;;;;;;;;5072363;28;20888;-52
2023/08/19 06:33:08;;;;;;;204.27;72.80;;;;;;;;;;5076727;28;20424;-52
2023/08/19 06:35:35;;;;;;;203.63;70.97;;;;;;;;;;5072710;28;20450;-53
2023/08/19 06:38:04;;;;;;;201.90;68.20;;;;;;;;;;5072437;28;20496;-54
2023/08/19 06:40:33;;;;;;;203.17;71.23;;;;;;;;;;5072262;28;20775;-52
2023/08/19 06:43:00;;;;;;;204.60;73.53;;;;;;;;;;5072335;28;20475;-54
2023/08/19 06:45:26;;;;;;;202.73;72.27;;;;;;;;;;5072157;28;20452;-53
2023/08/19 06:47:53;;;;;;;204.93;75.47;;;;;;;;;;5072428;28;20438;-54
2023/08/19 06:50:19;;;;;;;207.50;80.87;;;;;;;;;;5071707;28;20420;-53
2023/08/19 06:52:45;;;;;;;205.50;73.57;;;;;;;;;;5072018;28;20435;-52
2023/08/19 06:55:12;;;;;;;205.60;75.67;;;;;;;;;;5071915;28;20400;-53
2023/08/19 06:57:47;;;;;;;205.87;74.57;;;;;;;;;;5072081;28;20411;-52
2023/08/19 07:00:14;;;;;;;202.70;71.23;;;;;;;;;;5072018;28;20404;-53
2023/08/19 07:02:40;;;;;;;201.07;69.70;;;;;;;;;;5072158;28;20924;-53
2023/08/19 07:05:16;;;;;;;202.90;72.10;;;;;;;;;;5071969;28;20458;-52
2023/08/19 07:07:47;;;;;;;204.77;73.83;;;;;;;;;;5064110;28;20948;-53
2023/08/19 07:10:17;;;;;;;205.87;74.00;;;;;;;;;;5071814;28;20419;-52
2023/08/19 07:12:44;;;;;;;204.90;74.97;;;;;;;;;;5069143;28;20499;-52
2023/08/19 07:15:14;;;;;;;203.40;71.60;;;;;;;;;;5072057;28;20977;-52
2023/08/19 07:17:43;;;;;;;204.10;76.43;;;;;;;;;;5063724;28;20407;-53
2023/08/19 07:20:21;;;;;;;202.27;72.10;;;;;;;;;;5071242;28;20432;-52
2023/08/19 07:22:48;;;;;;;202.73;74.00;;;;;;;;;;5077929;28;20416;-54
2023/08/19 07:25:15;;;;;;;199.73;73.83;;;;;;;;;;5071698;28;20470;-53
2023/08/19 07:27:44;;;;;;;201.53;74.00;;;;;;;;;;5070670;28;20393;-53
2023/08/19 07:30:11;;;;;;;200.33;73.47;;;;;;;;;;5071792;28;20748;-52
2023/08/19 07:32:38;;;;;;;199.20;73.07;;;;;;;;;;5071609;28;20428;-52
2023/08/19 07:35:04;;;;;;;197.13;69.07;;;;;;;;;;5071527;28;20416;-52
2023/08/19 07:37:30;;;;;;;201.73;76.13;;;;;;;;;;5070631;28;20404;-54
2023/08/19 07:39:57;;;;;;;204.07;74.37;;;;;;;;;;5071407;28;20503;-54
2023/08/19 07:42:23;;;;;;;205.97;76.77;;;;;;;;;;5071486;28;20439;-55
2023/08/19 07:44:49;;;;;;;205.87;77.43;;;;;;;;;;5071440;28;20813;-55
2023/08/19 07:47:15;;;;;;;203.40;75.63;;;;;;;;;;5071437;28;20452;-55
2023/08/19 07:49:41;;;;;;;205.63;76.80;;;;;;;;;;5071620;28;20431;-56
2023/08/19 07:52:07;;;;;;;205.63;75.73;;;;;;;;;;5084158;28;20443;-56
2023/08/19 07:54:33;;;;;;;205.63;77.90;;;;;;;;;;5075718;28;20412;-55
2023/08/19 07:56:59;;;;;;;205.80;75.53;;;;;;;;;;5070325;28;20431;-55
2023/08/19 07:59:25;;;;;;;205.97;76.57;;;;;;;;;;5061659;28;20425;-56
2023/08/19 08:01:52;;;;;;;205.97;77.50;;;;;;;;;;5058067;28;20435;-56
2023/08/19 08:04:18;;;;;;;203.53;72.93;;;;;;;;;;5074421;28;20503;-56
2023/08/19 08:06:45;;;;;;;207.83;77.70;;;;;;;;;;5075950;28;20451;-54
2023/08/19 08:09:11;;;;;;;203.80;76.27;;;;;;;;;;5075172;28;20404;-55
2023/08/19 08:11:37;;;;;;;205.47;77.40;;;;;;;;;;5075218;28;20447;-55
2023/08/19 08:14:03;;;;;;;205.73;76.13;;;;;;;;;;5075158;28;20455;-54
2023/08/19 08:16:29;;;;;;;202.30;74.87;;;;;;;;;;5075447;28;20401;-55
2023/08/19 08:18:55;;;;;;;205.83;76.33;;;;;;;;;;5075420;28;20484;-55
2023/08/19 08:21:21;;;;;;;204.80;77.87;;;;;;;;;;5075093;28;20542;-55
2023/08/19 08:23:48;;;;;;;204.93;75.50;;;;;;;;;;5075607;28;20404;-55
2023/08/19 08:26:14;;;;;;;203.50;76.90;;;;;;;;;;5075205;28;20448;-54
2023/08/19 08:28:41;;;;;;;205.37;76.07;;;;;;;;;;5074987;28;20957;-55
2023/08/19 08:31:07;;;;;;;203.60;73.07;;;;;;;;;;5074876;28;20450;-55
2023/08/19 08:33:33;;;;;;;208.67;77.93;;;;;;;;;;5074954;28;20400;-54
2023/08/19 08:36:00;;;;;;;204.37;77.17;;;;;;;;;;5075145;28;20823;-55
2023/08/19 08:38:26;;;;;;;208.07;78.37;;;;;;;;;;5074784;28;20946;-55
2023/08/19 08:40:52;;;;;;;204.17;75.03;;;;;;;;;;5074635;28;20498;-55
2023/08/19 08:43:18;;;;;;;203.40;75.67;;;;;;;;;;5092227;28;20808;-54
2023/08/19 08:45:45;;;;;;;210.07;81.77;;;;;;;;;;5094647;28;20453;-54
2023/08/19 08:48:11;;;;;;;204.03;77.87;;;;;;;;;;5094548;28;20884;-55
2023/08/19 08:50:38;;;;;;;202.43;73.93;;;;;;;;;;5094431;28;20918;-55
2023/08/19 08:53:04;;;;;;;205.57;75.53;;;;;;;;;;5075153;28;20427;-55
2023/08/19 08:55:30;;;;;;;203.77;76.67;;;;;;;;;;5074681;28;20409;-55
2023/08/19 08:57:57;;;;;;;205.30;78.00;;;;;;;;;;5074614;28;20412;-54
2023/08/19 09:00:23;;;;;;;203.30;77.33;;;;;;;;;;5074616;28;20409;-54
2023/08/19 09:02:51;;;;;;;206.53;79.30;;;;;;;;;;5074670;28;20423;-55
2023/08/19 09:05:19;;;;;;;203.73;77.17;;;;;;;;;;5074429;28;20400;-55
2023/08/19 09:07:47;;;;;;;204.77;76.10;;;;;;;;;;5074547;28;20454;-55
2023/08/19 09:10:14;;;;;;;204.23;74.77;;;;;;;;;;5074272;28;20803;-55
2023/08/19 09:12:43;;;;;;;207.00;78.07;;;;;;;;;;5074520;28;20421;-55
2023/08/19 09:15:12;;;;;;;208.20;80.43;;;;;;;;;;5073713;28;20406;-55
2023/08/19 09:17:39;;;;;;;211.97;84.33;;;;;;;;;;5074395;28;20396;-55
2023/08/19 09:20:06;;;;;;;210.03;84.63;;;;;;;;;;5074111;28;20480;-55
2023/08/19 09:22:32;;;;;;;211.10;85.43;;;;;;;;;;5074201;28;20421;-54
2023/08/19 09:24:58;;;;;;;209.37;84.80;;;;;;;;;;5074026;28;20397;-54
2023/08/19 09:27:28;;;;;;;206.87;81.87;;;;;;;;;;5074095;28;20944;-54
2023/08/19 09:29:54;;;;;;;211.80;86.23;;;;;;;;;;5073984;28;20562;-54
2023/08/19 09:32:28;;;;;;;209.40;86.53;;;;;;;;;;5074012;28;20420;-54
2023/08/19 09:35:02;;;;;;;207.07;83.17;;;;;;;;;;5073945;28;21017;-54
2023/08/19 09:37:28;;;;;;;210.13;88.47;;;;;;;;;;5073895;28;20408;-55
2023/08/19 09:39:54;;;;;;;213.83;89.13;;;;;;;;;;5073757;28;20440;-55
2023/08/19 09:42:21;;;;;;;209.10;88.33;;;;;;;;;;5073834;28;20452;-55
2023/08/19 09:44:47;;;;;;;208.33;85.23;;;;;;;;;;5073789;28;20407;-55
2023/08/19 09:47:13;;;;;;;210.10;89.90;;;;;;;;;;5073796;28;20456;-55
2023/08/19 09:49:39;;;;;;;210.07;87.00;;;;;;;;;;5073552;28;20483;-55
2023/08/19 09:52:06;;;;;;;207.90;84.60;;;;;;;;;;5085889;28;20440;-55
2023/08/19 09:54:32;;;;;;;208.67;86.00;;;;;;;;;;5093746;28;20391;-54
2023/08/19 09:56:58;;;;;;;209.03;86.50;;;;;;;;;;5094072;28;20400;-55
2023/08/19 09:59:25;;;;;;;211.70;88.53;;;;;;;;;;5093802;28;20477;-55
2023/08/19 10:01:52;;;;;;;208.47;85.60;;;;;;;;;;5093476;28;20426;-55
2023/08/19 10:04:21;;;;;;;209.70;90.20;;;;;;;;;;5093642;28;20400;-55
2023/08/19 10:06:48;;;;;;;209.83;88.70;;;;;;;;;;5093763;28;20454;-54
2023/08/19 10:09:16;;;;;;;208.77;89.50;;;;;;;;;;5093732;28;20396;-55
2023/08/19 10:11:43;;;;;;;208.27;89.63;;;;;;;;;;5093311;28;20907;-59
2023/08/19 10:14:09;;;;;;;210.03;91.33;;;;;;;;;;5093433;28;20408;-55
2023/08/19 10:16:38;;;;;;;208.97;88.77;;;;;;;;;;5093444;28;20407;-55
2023/08/19 10:19:06;;;;;;;207.90;88.50;;;;;;;;;;5093314;28;20907;-55
2023/08/19 10:21:33;;;;;;;208.73;89.50;;;;;;;;;;5093060;28;20435;-54
2023/08/19 10:23:59;;;;;;;207.73;87.97;;;;;;;;;;5093526;28;20761;-55
2023/08/19 10:26:26;;;;;;;207.87;90.87;;;;;;;;;;5092395;28;20965;-54
2023/08/19 10:29:09;;;;;;;207.93;89.67;;;;;;;;;;5093244;28;20474;-55
2023/08/19 10:31:36;;;;;;;210.90;94.13;;;;;;;;;;5092735;28;20809;-55
2023/08/19 10:34:11;;;;;;;209.10;91.67;;;;;;;;;;5091746;28;20411;-55
2023/08/19 10:36:39;;;;;;;207.80;87.47;;;;;;;;;;5093215;28;20437;-55
2023/08/19 10:39:14;;;;;;;210.93;93.13;;;;;;;;;;5093333;28;20423;-54
2023/08/19 10:41:40;;;;;;;208.30;90.87;;;;;;;;;;5092772;28;20478;-55
2023/08/19 10:44:07;;;;;;;222.33;98.17;;;;;;;;;;5092808;28;20778;-54
2023/08/19 10:46:34;;;;;;;220.23;96.00;;;;;;;;;;5092818;28;20455;-55
2023/08/19 10:49:08;;;;;;;217.33;91.87;;;;;;;;;;5092959;28;20908;-55
2023/08/19 10:51:48;;;;;;;216.33;91.50;;;;;;;;;;5084094;28;20436;-54
2023/08/19 10:54:14;;;;;;;211.80;90.77;;;;;;;;;;5072351;28;20483;-55
2023/08/19 10:56:53;;;;;;;207.27;87.13;;;;;;;;;;5072338;28;20396;-54
2023/08/19 10:59:21;;;;;;;209.47;91.47;;;;;;;;;;5072407;28;20479;-55
2023/08/19 11:01:47;;;;;;;244.73;123.00;;;;;;;;;;5072253;28;20512;-55
2023/08/19 11:04:13;;;;;;;201.70;85.93;;;;;;;;;;5072362;28;20428;-55
2023/08/19 11:06:40;;;;;;;201.20;84.27;;;;;;;;;;5072200;28;20448;-54
2023/08/19 11:09:07;;;;;;;204.87;91.60;;;;;;;;;;5072023;28;20496;-54
2023/08/19 11:11:33;;;;;;;202.57;88.80;;;;;;;;;;5071901;28;20420;-54
2023/08/19 11:13:59;;;;;;;200.13;87.50;;;;;;;;;;5072092;28;20427;-54
2023/08/19 11:16:27;;;;;;;201.80;87.17;;;;;;;;;;5072116;28;20915;-54
2023/08/19 11:18:56;;;;;;;200.40;86.77;;;;;;;;;;5072117;28;20401;-55
2023/08/19 11:21:24;;;;;;;200.57;87.03;;;;;;;;;;5071782;28;20428;-55
2023/08/19 11:23:52;;;;;;;219.53;102.10;;;;;;;;;;5069683;28;20415;-54
2023/08/19 11:26:18;;;;;;;201.77;88.90;;;;;;;;;;5060247;28;20535;-54
2023/08/19 11:28:44;;;;;;;218.80;96.83;;;;;;;;;;5070856;28;20397;-55
2023/08/19 11:31:10;;;;;;;200.80;85.10;;;;;;;;;;5071591;28;21027;-54
2023/08/19 11:33:37;;;;;;;205.10;93.03;;;;;;;;;;5071769;28;20409;-55
2023/08/19 11:36:04;;;;;;;203.73;89.90;;;;;;;;;;5070897;28;20923;-54
2023/08/19 11:38:30;;;;;;;203.17;86.50;;;;;;;;;;5071034;28;20412;-54
2023/08/19 11:40:56;;;;;;;200.80;84.07;;;;;;;;;;5070494;28;20427;-55
2023/08/19 11:43:24;;;;;;;200.67;85.27;;;;;;;;;;5071655;28;20477;-54
2023/08/19 11:45:50;;;;;;;201.63;88.43;;;;;;;;;;5071615;28;20486;-55
2023/08/19 11:48:16;;;;;;;202.77;87.10;;;;;;;;;;5071733;28;20424;-55
2023/08/19 11:50:49;;;;;;;201.87;85.47;;;;;;;;;;5072085;28;20503;-54
2023/08/19 11:53:41;;;;;;;199.80;80.83;;;;;;;;;;5091721;28;20955;-54
2023/08/19 11:56:07;;;;;;;200.83;83.23;;;;;;;;;;5090563;28;20430;-54
2023/08/19 11:58:50;;;;;;;200.47;82.00;;;;;;;;;;5091806;28;20404;-55
2023/08/19 12:01:16;;;;;;;203.33;84.40;;;;;;;;;;5091257;28;20403;-54
2023/08/19 12:03:46;;;;;;;202.57;84.43;;;;;;;;;;5091737;28;20426;-55
2023/08/19 12:06:13;;;;;;;202.67;81.33;;;;;;;;;;5091621;28;20465;-55
2023/08/19 12:08:40;;;;;;;201.27;80.63;;;;;;;;;;5091541;28;20841;-54
2023/08/19 12:11:06;;;;;;;211.57;94.07;;;;;;;;;;5091463;28;20688;-55
2023/08/19 12:13:32;;;;;;;201.53;78.40;;;;;;;;;;5091736;28;20453;-55
2023/08/19 12:15:58;;;;;;;206.60;82.47;;;;;;;;;;5091547;28;20403;-55
2023/08/19 12:18:24;;;;;;;210.23;84.40;;;;;;;;;;5091750;28;20813;-55
2023/08/19 12:20:51;;;;;;;208.50;81.47;;;;;;;;;;5091388;28;20407;-54
2023/08/19 12:23:17;;;;;;;208.60;82.57;;;;;;;;;;5091752;28;20547;-54
2023/08/19 12:26:10;;;;;;;205.50;78.73;;;;;;;;;;5091418;28;20469;-54
2023/08/19 12:28:36;;;;;;;207.30;80.53;;;;;;;;;;5090328;28;20506;-54
2023/08/19 12:31:02;;;;;;;211.37;87.90;;;;;;;;;;5091400;28;21135;-54
2023/08/19 12:33:28;;;;;;;210.77;85.03;;;;;;;;;;5091234;28;20391;-54
2023/08/19 12:35:54;;;;;;;208.53;82.30;;;;;;;;;;5091384;28;20455;-54
2023/08/19 12:38:20;;;;;;;209.73;90.13;;;;;;;;;;5091494;28;20403;-54
2023/08/19 12:40:48;;;;;;;209.50;86.40;;;;;;;;;;5091286;28;20396;-55
2023/08/19 12:43:14;;;;;;;205.37;80.13;;;;;;;;;;5091497;28;20438;-55
2023/08/19 12:45:41;;;;;;;210.20;86.50;;;;;;;;;;5091382;28;20447;-54
2023/08/19 12:48:12;;;;;;;207.97;82.23;;;;;;;;;;5091327;28;20399;-55
2023/08/19 12:50:38;;;;;;;206.70;80.63;;;;;;;;;;5093879;28;20422;-54
2023/08/19 12:53:04;;;;;;;206.43;80.30;;;;;;;;;;5074746;28;20431;-55
2023/08/19 12:55:31;;;;;;;205.83;78.43;;;;;;;;;;5074703;28;20404;-55
2023/08/19 12:57:57;;;;;;;209.50;82.97;;;;;;;;;;5074719;28;20995;-54
2023/08/19 13:00:27;;;;;;;206.03;79.23;;;;;;;;;;5074164;28;20420;-55
2023/08/19 13:02:53;;;;;;;207.50;80.57;;;;;;;;;;5074547;28;20416;-55
2023/08/19 13:05:20;;;;;;;209.73;81.30;;;;;;;;;;5074417;28;20407;-55
2023/08/19 13:07:46;;;;;;;210.60;85.90;;;;;;;;;;5074530;28;20761;-55
2023/08/19 13:10:14;;;;;;;209.67;81.90;;;;;;;;;;5074282;28;20874;-55
2023/08/19 13:12:40;;;;;;;206.97;81.33;;;;;;;;;;5074352;28;20417;-55
2023/08/19 13:15:06;;;;;;;207.63;81.33;;;;;;;;;;5073304;28;20698;-54
2023/08/19 13:17:32;;;;;;;206.23;80.47;;;;;;;;;;5074380;28;20397;-55
2023/08/19 13:19:58;;;;;;;211.27;83.93;;;;;;;;;;5074003;28;20400;-55
2023/08/19 13:22:24;;;;;;;207.93;82.17;;;;;;;;;;5074231;28;20420;-54
2023/08/19 13:24:51;;;;;;;208.37;81.37;;;;;;;;;;5074111;28;20408;-55
2023/08/19 13:27:17;;;;;;;207.60;81.73;;;;;;;;;;5073937;28;20451;-55
2023/08/19 13:29:43;;;;;;;210.67;83.03;;;;;;;;;;5074153;28;20396;-55
2023/08/19 13:32:10;;;;;;;203.60;78.33;;;;;;;;;;5074053;28;20421;-55
2023/08/19 13:34:36;;;;;;;205.80;86.23;;;;;;;;;;5073831;28;20396;-55
2023/08/19 13:37:03;;;;;;;205.33;80.53;;;;;;;;;;5074017;28;20749;-55
2023/08/19 13:39:29;;;;;;;204.30;78.83;;;;;;;;;;5073890;28;20774;-55
2023/08/19 13:41:55;;;;;;;203.40;75.67;;;;;;;;;;5073911;28;20428;-55
2023/08/19 13:44:25;;;;;;;202.80;78.90;;;;;;;;;;5073829;28;20815;-55
2023/08/19 13:46:54;;;;;;;200.80;74.23;;;;;;;;;;5073743;28;20452;-55
2023/08/19 13:49:20;;;;;;;202.00;76.07;;;;;;;;;;5073789;28;20487;-55
2023/08/19 13:51:47;;;;;;;204.33;80.07;;;;;;;;;;5083266;28;20514;-55
2023/08/19 13:54:17;;;;;;;203.70;75.07;;;;;;;;;;5093771;28;20400;-54
2023/08/19 13:56:52;;;;;;;201.33;72.43;;;;;;;;;;5093921;28;20399;-55
2023/08/19 13:59:18;;;;;;;202.33;76.20;;;;;;;;;;5093868;28;20402;-55
2023/08/19 14:01:44;;;;;;;203.03;77.00;;;;;;;;;;5093259;28;20798;-55
2023/08/19 14:04:11;;;;;;;203.83;75.23;;;;;;;;;;5093592;28;20768;-55